Latest Weather Observations for Hopetoun Airport

IDV60801

Issued at 11:52 am EDT Monday 26 October 2020 (issued every 10 minutes, with the page automatically refreshed every 10 minutes)

About weather observations | Map of weather stations | Latest weather observations for VIC | Other Formats
Station Details ID: 077010 Name: HOPETOUN AIRPORT Lat: -35.72 Lon: 142.36 Height: 77.3 m
Data from the previous 72 hours. | See also: Recent months at Hopetoun Airport
Date/Time
EDT
Temp
°C
App
Temp
°C
Dew
Point
°C
Rel
Hum
%
Delta-T
°C
Wind Press
QNH
hPa
Press
MSL
hPa
Rain since
9am
mm
Dir  Spd
km/h
Gust
km/h
Spd
kts
Gust
kts
26/11:30am 14.9 10.6 9.3 69 2.9 ESE 22 32 12 17 1021.5 1021.4 0.0
26/11:00am 13.6 9.4 9.8 78 2.0 SE 22 35 12 19 1021.7 1021.6 0.0
26/10:30am 11.5 8.3 10.1 91 0.7 ESE 17 24 9 13 1021.9 1021.8 0.0
26/10:00am 10.7 7.4 9.5 92 0.6 SE 17 22 9 12 1021.7 1021.6 0.0
26/09:30am 10.4 6.4 9.2 92 0.6 SE 20 30 11 16 1021.5 1021.4 0.0
26/09:00am 10.0 6.0 9.2 95 0.4 SE 20 28 11 15 1021.3 1021.2 1.4
26/08:30am 9.1 5.0 8.6 97 0.2 SE 20 28 11 15 1021.1 1021.0 1.2
26/08:00am 9.0 5.0 8.1 94 0.4 SE 19 24 10 13 1020.8 1020.7 0.6
26/07:30am 8.9 4.1 7.4 90 0.7 SE 22 32 12 17 1020.5 1020.4 0.4
26/07:00am 8.7 4.8 7.0 89 0.8 SE 17 22 9 12 1020.3 1020.2 0.4
26/06:30am 9.1 4.5 5.5 78 1.6 SE 19 24 10 13 1019.8 1019.7 0.0
26/06:00am 8.7 4.4 5.4 80 1.5 SSE 17 24 9 13 1019.4 1019.3 0.0
26/05:30am 8.5 3.8 5.3 80 1.4 SSE 19 24 10 13 1019.2 1019.1 0.0
26/05:00am 8.2 3.5 5.1 81 1.4 SSE 19 24 10 13 1019.1 1019.0 0.0
26/04:30am 7.9 4.3 5.0 82 1.3 SSE 13 20 7 11 1019.2 1019.1 0.0
26/04:00am 8.1 4.5 4.9 80 1.4 S 13 19 7 10 1019.1 1019.0 0.0
26/03:30am 8.4 4.4 5.0 79 1.5 S 15 20 8 11 1019.1 1019.0 0.0
26/03:00am 8.6 4.6 5.0 78 1.6 S 15 20 8 11 1019.3 1019.2 0.0
26/02:30am 8.6 4.7 5.2 79 1.5 S 15 20 8 11 1019.6 1019.5 0.0
26/02:00am 8.6 4.3 5.2 79 1.5 S 17 22 9 12 1019.9 1019.8 0.0
26/01:30am 8.5 4.9 5.1 79 1.5 S 13 20 7 11 1020.3 1020.2 0.0
26/01:00am 8.2 4.9 4.6 78 1.6 S 11 17 6 9 1020.4 1020.3 0.0
26/12:30am 8.7 4.6 4.3 74 1.9 S 15 22 8 12 1020.7 1020.6 0.0
26/12:00am 9.1 4.2 3.9 70 2.3 SSE 19 28 10 15 1020.8 1020.7 0.0
 
Date/Time
EDT
Temp
°C
App
Temp
°C
Dew
Point
°C
Rel
Hum
%
Delta-T
°C
Wind Press
QNH
hPa
Press
MSL
hPa
Rain since
9am
mm
Dir  Spd
km/h
Gust
km/h
Spd
kts
Gust
kts
25/11:30pm 10.0 4.1 4.0 66 2.7 SSE 24 33 13 18 1020.9 1020.8 0.0
25/11:00pm 10.7 4.1 4.2 64 2.9 SSE 28 41 15 22 1021.0 1020.9 0.0
25/10:30pm 11.0 4.8 4.5 64 2.9 SSE 26 35 14 19 1021.1 1021.0 0.0
25/10:00pm 11.3 5.1 4.5 63 3.1 SSE 26 35 14 19 1021.0 1020.9 0.0
25/09:30pm 11.5 4.6 4.7 63 3.1 SSE 30 41 16 22 1020.8 1020.7 0.0
25/09:00pm 11.6 5.0 4.3 61 3.3 SSE 28 43 15 23 1020.7 1020.6 0.0
25/08:30pm 12.0 5.0 4.2 59 3.5 SSE 30 44 16 24 1020.4 1020.3 0.0
25/08:02pm 12.5 5.0 4.5 58 3.7 SSE 33 52 18 28 1020.3 1020.2 0.0
25/08:00pm 12.5 5.2 4.5 58 3.6 SSE 32 46 17 25 1020.2 1020.1 0.0
25/07:30pm 13.3 5.8 3.7 52 4.3 SSE 32 44 17 24 1019.8 1019.7 0.0
25/07:00pm 14.2 6.5 3.4 48 4.9 SSE 33 48 18 26 1019.3 1019.2 0.0
25/06:45pm 14.6 6.8 1.5 41 5.7 SSE 32 50 17 27 1019.1 1019.0 0.0
25/06:30pm 15.4 8.5 0.0 35 6.6 SSE 26 43 14 23 1018.9 1018.8 0.0
25/06:00pm 16.0 8.7 -0.2 33 6.9 SSE 28 41 15 22 1018.6 1018.5 0.0
25/05:30pm 16.0 8.2 -0.7 32 7.0 S 30 43 16 23 1018.5 1018.4 0.0
25/05:00pm 15.7 7.6 -0.1 34 6.7 S 32 46 17 25 1018.7 1018.6 0.0
25/04:30pm 16.9 8.9 0.1 32 7.3 SSE 32 50 17 27 1018.6 1018.5 0.0
25/04:03pm 15.7 8.3 -0.5 33 6.8 SSE 28 50 15 27 1018.7 1018.6 0.0
25/04:00pm 15.3 7.9 -0.9 33 6.7 SSE 28 43 15 23 1018.7 1018.6 0.0
25/03:30pm 16.3 8.7 0.4 34 6.9 SSE 30 48 16 26 1019.2 1019.1 0.0
25/03:27pm 15.3 7.1 -0.9 33 6.8 SSE 32 50 17 27 1019.2 1019.1 0.0
25/03:00pm 16.5 7.9 0.2 33 7.0 SSE 35 54 19 29 1019.3 1019.2 0.0
25/02:52pm 15.8 8.0 -0.8 32 7.0 S 30 54 16 29 1019.2 1019.1 0.0
25/02:30pm 15.8 7.9 -1.3 31 7.1 SSE 30 46 16 25 1019.5 1019.4 0.0
25/02:00pm 15.8 7.9 -1.3 31 7.1 SSE 30 50 16 27 1019.7 1019.6 0.0
25/01:35pm 15.5 7.2 -1.5 31 7.0 SSE 32 56 17 30 1019.8 1019.7 0.0
25/01:30pm 15.6 7.8 -1.0 32 6.9 SSE 30 43 16 23 1019.9 1019.8 0.0
25/01:00pm 15.7 8.1 0.3 35 6.6 SSE 30 41 16 22 1020.2 1020.1 0.0
25/12:30pm 15.0 7.3 -0.3 35 6.4 SSE 30 39 16 21 1020.6 1020.5 0.0
25/12:00pm 13.8 5.9 -1.8 34 6.3 SSE 30 43 16 23 1021.0 1020.9 0.0
25/11:37am 13.7 5.4 -1.5 35 6.2 SSE 32 50 17 27 1021.2 1021.1 0.0
25/11:30am 13.5 5.0 -1.6 35 6.1 SSE 33 50 18 27 1021.2 1021.1 0.0
25/11:29am 13.7 5.5 -1.1 36 6.0 SSE 32 50 17 27 1021.2 1021.1 0.0
25/11:00am 12.5 4.3 -1.1 39 5.5 SSE 32 50 17 27 1021.4 1021.3 0.0
25/10:30am 11.8 2.5 -2.0 38 5.4 SSE 37 52 20 28 1021.6 1021.5 0.0
25/10:00am 13.1 5.2 2.4 48 4.7 SSE 33 50 18 27 1021.4 1021.3 0.0
25/09:30am 10.7 3.3 2.0 55 3.7 S 30 48 16 26 1021.5 1021.4 0.0
25/09:00am 10.2 3.4 3.3 62 3.0 S 28 41 15 22 1021.2 1021.1 0.0
25/08:30am 8.9 3.9 4.5 74 2.0 S 20 30 11 16 1020.9 1020.8 0.0
25/08:00am 7.4 2.7 5.0 85 1.1 S 19 26 10 14 1020.5 1020.4 0.0
25/07:30am 6.5 2.3 5.8 95 0.3 S 17 22 9 12 1019.9 1019.8 0.0
25/07:00am 5.6 1.7 5.5 99 0.0 SSW 15 19 8 10 1019.4 1019.3 0.0
25/06:30am 5.7 1.9 5.6 99 0.0 SSW 15 19 8 10 1019.1 1019.0 0.0
25/06:00am 6.3 3.3 6.2 99 0.0 SSW 11 19 6 10 1018.6 1018.5 0.0
25/05:30am 6.0 2.6 5.9 99 0.0 SSW 13 19 7 10 1018.4 1018.3 0.0
25/05:00am 6.0 2.6 6.0 100 0.0 SSW 13 19 7 10 1018.2 1018.1 0.0
25/04:30am 5.0 2.1 4.9 99 0.0 SSW 9 13 5 7 1018.0 1017.9 0.0
25/04:00am 5.3 2.5 5.2 99 0.0 SSW 9 13 5 7 1017.9 1017.8 0.0
25/03:30am 5.3 2.1 5.2 99 0.0 SSW 11 15 6 8 1017.6 1017.5 0.0
25/03:00am 4.9 2.0 4.6 98 0.1 SSW 9 15 5 8 1017.2 1017.1 0.0
25/02:30am 5.2 2.3 4.8 97 0.2 SW 9 13 5 7 1017.0 1016.9 0.0
25/02:00am 5.5 1.9 4.9 96 0.3 SSW 13 17 7 9 1017.0 1016.9 0.0
25/01:30am 5.5 2.6 4.5 93 0.4 SSW 9 13 5 7 1017.1 1017.0 0.0
25/01:00am 6.1 2.8 4.4 89 0.7 SSW 11 15 6 8 1016.9 1016.8 0.0
25/12:30am 7.4 3.4 5.0 85 1.1 SSW 15 20 8 11 1016.6 1016.5 0.0
25/12:00am 7.3 3.6 4.6 83 1.2 SSW 13 17 7 9 1016.4 1016.3 0.0
 
Date/Time
EDT
Temp
°C
App
Temp
°C
Dew
Point
°C
Rel
Hum
%
Delta-T
°C
Wind Press
QNH
hPa
Press
MSL
hPa
Rain since
9am
mm
Dir  Spd
km/h
Gust
km/h
Spd
kts
Gust
kts
24/11:30pm 8.0 3.9 4.4 78 1.6 SSW 15 19 8 10 1016.0 1016.0 0.0
24/11:00pm 8.9 4.7 3.9 71 2.2 SSW 15 22 8 12 1016.0 1016.0 0.0
24/10:30pm 10.4 5.5 4.1 65 2.8 SSW 19 28 10 15 1015.9 1015.9 0.0
24/10:00pm 11.5 6.3 3.3 57 3.6 SSW 20 30 11 16 1015.8 1015.8 0.0
24/09:30pm 11.6 6.3 2.9 55 3.8 SSW 20 28 11 15 1015.2 1015.1 0.0
24/09:00pm 12.3 7.2 3.3 54 4.0 S 19 28 10 15 1015.0 1014.9 0.0
24/08:30pm 12.9 7.3 3.3 52 4.3 S 22 35 12 19 1014.2 1014.1 0.0
24/08:00pm 12.8 7.6 2.4 49 4.6 SSW 19 28 10 15 1013.7 1013.6 0.0
24/07:30pm 13.1 6.9 2.4 48 4.7 S 24 33 13 18 1013.1 1013.0 0.0
24/07:00pm 14.3 6.9 1.6 42 5.5 S 30 46 16 25 1012.6 1012.5 0.0
24/06:45pm 15.0 7.1 2.2 42 5.7 S 33 52 18 28 1012.2 1012.1 0.0
24/06:30pm 15.4 8.0 1.9 40 6.0 SSW 30 43 16 23 1011.9 1011.8 0.0
24/06:00pm 15.3 8.1 2.8 43 5.6 S 30 43 16 23 1011.5 1011.4 0.0
24/05:30pm 16.4 8.8 3.1 41 6.1 SSW 32 48 17 26 1011.0 1010.9 0.0
24/05:00pm 17.3 10.4 4.6 43 6.1 SSW 30 44 16 24 1010.5 1010.4 0.0
24/04:30pm 16.8 10.1 5.7 48 5.4 SSW 30 44 16 24 1010.3 1010.2 0.0
24/04:15pm 17.5 11.2 5.8 46 5.7 SSW 28 50 15 27 1010.2 1010.1 0.0
24/04:00pm 17.1 10.6 6.6 50 5.2 SSW 30 44 16 24 1010.2 1010.1 0.0
24/03:30pm 17.5 10.8 5.4 45 5.9 SSW 30 46 16 25 1010.0 1009.9 0.0
24/03:00pm 18.7 11.6 6.2 44 6.2 SW 33 44 18 24 1009.9 1009.8 0.0
24/02:30pm 18.7 12.9 8.1 50 5.5 SSW 28 39 15 21 1010.0 1009.9 0.0
24/02:00pm 17.3 11.1 6.2 48 5.5 SSW 28 43 15 23 1009.9 1009.8 0.0
24/01:30pm 16.1 9.8 7.6 57 4.3 SSW 30 48 16 26 1009.7 1009.6 0.0
24/01:00pm 15.7 8.9 7.7 59 4.0 SSW 33 46 18 25 1009.8 1009.7 0.0
24/12:30pm 16.0 9.4 7.7 58 4.2 SSW 32 44 17 24 1009.5 1009.4 0.0
24/12:00pm 16.3 9.5 7.5 56 4.4 SSW 33 46 18 25 1009.4 1009.3 0.0
24/11:39am 15.5 8.3 7.5 59 4.0 S 35 57 19 31 1009.1 1009.0 0.0
24/11:30am 15.4 7.9 7.9 61 3.8 S 37 54 20 29 1009.0 1008.9 0.0
24/11:06am 14.8 9.2 10.0 73 2.5 S 30 50 16 27 1008.8 1008.7 0.0
24/11:00am 13.9 8.1 9.5 75 2.3 S 30 43 16 23 1008.8 1008.7 0.0
24/10:30am 12.4 6.6 9.4 82 1.5 SSW 30 43 16 23 1008.6 1008.5 0.0
24/10:00am 11.6 6.3 9.9 89 0.9 SSW 28 41 15 22 1008.5 1008.4 0.0
24/09:30am 11.7 6.7 10.9 95 0.4 SSW 28 44 15 24 1007.9 1007.8 0.0
24/09:00am 11.5 6.7 11.5 100 0.0 SSW 28 41 15 22 1007.6 1007.5 6.2
24/08:37am 11.7 6.9 11.7 100 0.0 SSW 28 46 15 25 1007.3 1007.2 6.0
24/08:30am 11.6 6.8 11.6 100 0.0 SSW 28 39 15 21 1007.3 1007.2 6.0
24/08:00am 11.7 6.9 11.7 100 0.0 SSW 28 41 15 22 1006.8 1006.7 6.0
24/07:30am 11.8 7.8 11.8 100 0.0 SSW 24 33 13 18 1006.4 1006.3 5.4
24/07:00am 11.9 7.6 11.9 100 0.0 SSW 26 35 14 19 1005.8 1005.7 5.0
24/06:30am 12.3 7.7 12.3 100 0.0 SSW 28 46 15 25 1005.3 1005.2 4.6
24/06:28am 12.3 7.7 12.3 100 0.0 SSW 28 46 15 25 1005.2 1005.1 4.6
24/06:00am 12.8 9.5 12.8 100 0.0 SSW 22 37 12 20 1004.8 1004.7 4.2
24/05:30am 13.2 10.0 13.2 100 0.0 SSW 22 33 12 18 1004.5 1004.4 3.8
24/05:00am 13.7 10.7 13.7 100 0.0 SSW 22 33 12 18 1004.2 1004.0 3.6
24/04:30am 14.0 11.5 14.0 100 0.0 SSW 20 33 11 18 1003.9 1003.7 3.6
24/04:00am 14.6 12.9 14.6 100 0.0 SSW 17 28 9 15 1003.8 1003.6 3.4
24/03:30am 16.0 17.6 16.0 100 0.0 SW 2 4 1 2 1003.8 1003.6 3.2
24/03:00am 15.9 17.5 15.9 100 0.0 SSW 2 6 1 3 1003.8 1003.6 3.2
24/02:30am 15.8 16.6 15.8 100 0.0 SSW 6 7 3 4 1003.8 1003.6 3.2
24/02:00am 15.9 17.1 15.9 100 0.0 SSE 4 6 2 3 1004.0 1003.8 3.2
24/01:30am 15.9 16.7 15.9 100 0.0 SE 6 6 3 3 1004.1 1003.9 3.2
24/01:00am 16.3 17.3 16.3 100 0.0 SE 6 7 3 4 1004.2 1004.0 3.0
24/12:30am 16.4 17.4 16.4 100 0.0 SSE 6 7 3 4 1004.3 1004.1 3.0
24/12:00am 16.5 17.4 16.5 100 0.0 S 7 9 4 5 1004.6 1004.5 3.0
 
Date/Time
EDT
Temp
°C
App
Temp
°C
Dew
Point
°C
Rel
Hum
%
Delta-T
°C
Wind Press
QNH
hPa
Press
MSL
hPa
Rain since
9am
mm
Dir  Spd
km/h
Gust
km/h
Spd
kts
Gust
kts
23/11:30pm 16.6 17.7 16.6 100 0.0 S 6 9 3 5 1004.7 1004.6 3.0
23/11:00pm 16.9 17.9 16.9 100 0.0 S 7 9 4 5 1004.4 1004.2 3.0
23/10:30pm 17.1 17.8 17.1 100 0.0 SSW 9 11 5 6 1004.2 1004.0 3.0
23/10:00pm 17.5 18.9 17.3 99 0.1 SE 6 6 3 3 1004.0 1003.8 3.0
23/09:30pm 17.7 19.5 17.4 98 0.2 E 4 6 2 3 1004.3 1004.1 3.0
23/09:00pm 17.8 18.9 17.2 96 0.4 ENE 7 9 4 5 1004.4 1004.2 3.0
23/08:30pm 18.6 21.5 18.1 97 0.3 CALM 0 0 0 0 1004.2 1004.0 1.2
23/08:00pm 18.7 21.4 17.7 94 0.6 CALM 0 0 0 0 1003.7 1003.5 1.2
23/07:30pm 19.0 21.7 17.7 92 0.8 CALM 0 0 0 0 1003.7 1003.5 1.2
23/07:00pm 19.2 21.3 17.3 89 1.2 NE 2 2 1 1 1003.8 1003.6 1.2
23/06:30pm 19.2 20.5 17.2 88 1.2 NE 6 6 3 3 1003.8 1003.6 1.2
23/06:00pm 19.2 20.7 17.5 90 1.0 ENE 6 7 3 4 1003.4 1003.2 1.2
23/05:30pm 19.2 20.3 17.2 88 1.2 NNE 7 9 4 5 1003.9 1003.7 1.2
23/05:00pm 19.6 20.1 16.6 83 1.8 N 9 13 5 7 1004.5 1004.4 0.6
23/04:30pm 20.5 20.1 15.1 71 3.2 NNE 11 15 6 8 1004.5 1004.4 0.2
23/04:00pm 21.4 19.9 14.3 64 4.2 NE 15 19 8 10 1004.3 1004.1 0.2
23/03:30pm 22.8 21.9 12.7 53 5.8 NNE 9 13 5 7 1004.2 1004.0 0.2
23/03:00pm 22.9 21.4 13.1 54 5.7 NNE 13 17 7 9 1004.5 1004.4 0.2
23/02:30pm 22.5 20.2 13.0 55 5.5 N 17 24 9 13 1004.9 1004.8 0.2
23/02:00pm 22.6 20.7 13.1 55 5.5 N 15 19 8 10 1005.4 1005.3 0.2
23/01:30pm 21.7 20.4 13.6 60 4.7 NW 13 19 7 10 1005.6 1005.5 0.2
23/01:00pm 21.5 17.4 12.6 57 5.1 NW 26 35 14 19 1006.3 1006.2 0.2
23/12:30pm 21.1 18.7 14.3 65 4.0 NNW 20 32 11 17 1006.9 1006.8 0.2
23/12:00pm 20.6 18.6 12.6 60 4.5 NNW 15 24 8 13 1006.5 1006.4 0.0

Other formats

Comma delimited format used in spreadsheet applications
http://www.bom.gov.au/fwo/IDV60801/IDV60801.94838.axf

JavaScript Object Notation format (JSON) in row-major order
http://www.bom.gov.au/fwo/IDV60801/IDV60801.94838.json

Data quality

Most of these data are generated automatically and are frequently updated. Quality checks on data are not normally performed. It is possible for incorrect values to appear. Refer to information at About Latest Weather Observations and please check the disclaimer before using these data.